createdAt,value
2019-05-10T00:00:11.248Z,99.90
2019-05-10T00:02:58.024Z,99.90
2019-05-10T00:05:44.492Z,99.90
2019-05-10T00:08:30.792Z,99.90
2019-05-10T00:11:34.169Z,99.90
2019-05-10T00:14:22.771Z,99.90
2019-05-10T00:16:53.466Z,99.90
2019-05-10T00:19:22.187Z,99.90
2019-05-10T00:21:50.956Z,99.90
2019-05-10T00:24:19.772Z,99.90
2019-05-10T00:26:48.502Z,99.90
2019-05-10T00:29:17.237Z,99.90
2019-05-10T00:31:46.068Z,99.90
2019-05-10T00:34:14.872Z,99.90
2019-05-10T00:36:43.619Z,99.90
2019-05-10T00:39:12.362Z,99.90
2019-05-10T05:45:33.914Z,99.90
2019-05-10T05:48:03.446Z,99.90
2019-05-10T05:50:32.167Z,99.90
2019-05-10T05:53:00.928Z,99.90
2019-05-10T05:55:31.988Z,99.90
2019-05-10T05:58:04.840Z,99.90
2019-05-10T06:00:30.590Z,99.90
2019-05-10T06:02:59.383Z,99.90
2019-05-10T06:05:33.932Z,99.90
2019-05-10T06:07:58.595Z,99.90
2019-05-10T06:10:27.386Z,99.90
2019-05-10T06:12:56.121Z,99.90
2019-05-10T06:22:29.361Z,99.90
2019-05-10T06:24:58.167Z,99.90
2019-05-10T06:27:26.906Z,99.90
2019-05-10T06:29:55.747Z,99.90
2019-05-10T06:32:24.557Z,99.90
2019-05-10T06:34:53.377Z,99.90
2019-05-10T06:37:22.177Z,99.90
2019-05-10T06:39:50.940Z,99.90
2019-05-10T06:42:19.715Z,99.90
2019-05-10T06:44:48.494Z,99.90
2019-05-10T06:47:17.266Z,99.90
2019-05-10T06:49:50.444Z,99.90
2019-05-10T06:52:16.704Z,99.90
2019-05-10T06:54:54.622Z,99.90
2019-05-10T06:57:23.507Z,99.90
2019-05-10T06:59:57.037Z,99.90
2019-05-10T07:02:26.809Z,99.90
2019-05-10T07:04:55.284Z,99.90
2019-05-10T07:07:42.763Z,99.90
2019-05-10T07:10:12.460Z,99.90
2019-05-10T07:12:24.976Z,99.90
2019-05-10T07:14:57.682Z,99.90
2019-05-10T07:17:24.188Z,99.90
2019-05-10T07:19:55.149Z,99.90
2019-05-10T07:22:26.923Z,99.90
2019-05-10T07:24:57.028Z,99.90
2019-05-10T07:27:24.648Z,99.90
2019-05-10T07:29:53.363Z,99.90
2019-05-10T07:32:24.434Z,99.90
2019-05-10T07:34:58.701Z,99.90
2019-05-10T07:37:23.027Z,99.90
2019-05-10T07:39:51.866Z,99.90
2019-05-10T07:42:20.574Z,99.90
2019-05-10T07:44:49.303Z,99.90
2019-05-10T07:47:18.054Z,99.90
2019-05-10T07:49:46.783Z,99.90
2019-05-10T07:52:15.675Z,99.90
2019-05-10T07:54:45.649Z,99.90
2019-05-10T07:57:18.630Z,99.90
2019-05-10T07:59:50.807Z,99.90
2019-05-10T08:02:15.907Z,99.90
2019-05-10T08:04:44.755Z,99.90
2019-05-10T08:07:13.520Z,99.90
2019-05-10T08:09:45.217Z,99.90
2019-05-10T08:12:13.096Z,99.90
2019-05-10T08:14:44.382Z,99.90
2019-05-10T08:17:12.460Z,99.90
2019-05-10T08:19:41.471Z,99.90
2019-05-10T08:22:12.882Z,99.90
2019-05-10T08:24:46.452Z,99.90
2019-05-10T08:27:14.692Z,99.90
2019-05-10T08:29:42.936Z,99.90
2019-05-10T08:32:12.855Z,99.90
2019-05-10T08:34:51.673Z,99.90
2019-05-10T08:37:12.851Z,99.90
2019-05-10T08:39:48.994Z,99.90
2019-05-10T08:42:30.511Z,99.90
2019-05-10T08:44:42.901Z,99.90
2019-05-10T08:47:16.166Z,99.90
2019-05-10T08:49:56.023Z,99.90
2019-05-10T08:52:12.916Z,99.90
2019-05-10T08:54:42.336Z,99.90
2019-05-10T08:57:17.936Z,99.90
2019-05-10T08:59:42.756Z,99.90
2019-05-10T09:02:12.611Z,99.90
2019-05-10T09:04:48.673Z,99.90
2019-05-10T09:07:12.550Z,99.90
2019-05-10T09:09:49.677Z,99.90
2019-05-10T09:12:12.463Z,99.90
2019-05-10T09:14:42.579Z,99.90
2019-05-10T09:17:17.169Z,99.90
2019-05-10T09:19:44.238Z,99.90
2019-05-10T09:22:12.558Z,99.90
2019-05-10T09:24:48.765Z,99.90
2019-05-10T09:27:14.115Z,99.90
2019-05-10T09:29:43.102Z,99.90
2019-05-10T09:32:12.537Z,99.90
2019-05-10T09:34:42.881Z,99.90
2019-05-10T09:37:14.540Z,99.90
2019-05-10T09:39:42.575Z,99.90
2019-05-10T09:42:25.114Z,99.90
2019-05-10T09:44:45.879Z,99.90
2019-05-10T09:53:53.108Z,99.90
2019-05-10T09:56:21.980Z,99.90
2019-05-10T09:58:50.721Z,99.90
2019-05-10T10:01:22.027Z,99.90
2019-05-10T10:03:50.841Z,99.90
2019-05-10T10:06:19.576Z,99.90
2019-05-10T10:08:51.907Z,99.90
2019-05-10T10:11:18.906Z,99.90
2019-05-10T10:13:50.151Z,99.90
2019-05-10T10:16:19.116Z,99.90
2019-05-10T10:18:48.319Z,99.90
2019-05-10T10:21:18.945Z,99.90
2019-05-10T10:23:47.635Z,99.90
2019-05-10T10:26:18.635Z,99.90
2019-05-10T10:28:49.783Z,99.90
2019-05-10T10:31:30.344Z,99.90
2019-05-10T10:34:02.090Z,99.90
2019-05-10T10:36:27.408Z,99.90
2019-05-10T10:38:56.520Z,99.70
2019-05-10T10:41:27.381Z,99.20
2019-05-10T10:43:58.150Z,99.30
2019-05-10T10:46:28.005Z,98.40
2019-05-10T10:48:57.003Z,97.30
2019-05-10T10:51:26.487Z,97.10
2019-05-10T10:53:58.112Z,95.70
2019-05-10T10:56:27.667Z,96.80
2019-05-10T10:58:58.155Z,97.10
2019-05-10T11:01:37.991Z,97.10
2019-05-10T11:03:57.687Z,97.00
2019-05-10T11:06:26.480Z,96.00
2019-05-10T11:08:55.210Z,97.40
2019-05-10T11:11:23.983Z,97.30
2019-05-10T11:14:01.503Z,97.90
2019-05-10T11:16:23.266Z,97.80
2019-05-10T11:18:52.151Z,98.50
2019-05-10T11:21:23.417Z,99.10
2019-05-10T11:23:51.349Z,97.80
2019-05-10T11:26:21.723Z,97.90
2019-05-10T11:28:51.382Z,98.10
2019-05-10T11:31:21.403Z,98.40
2019-05-10T11:33:53.638Z,98.80
2019-05-10T11:36:21.188Z,99.30
2019-05-10T11:38:53.602Z,98.40
2019-05-10T11:41:23.772Z,97.50
2019-05-10T11:43:50.940Z,97.00
2019-05-10T11:46:20.950Z,97.80
2019-05-10T11:48:50.990Z,98.60
2019-05-10T11:51:21.033Z,98.30
2019-05-10T11:53:55.383Z,97.70
2019-05-10T11:58:55.369Z,98.30
2019-05-10T11:59:03.906Z,98.20
2019-05-10T12:01:22.250Z,97.10
2019-05-10T12:03:51.192Z,96.40
2019-05-10T12:06:21.367Z,96.70
2019-05-10T12:08:56.779Z,97.70
2019-05-10T12:11:31.883Z,97.30
2019-05-10T12:13:52.846Z,98.50
2019-05-10T12:16:21.673Z,97.10
2019-05-10T12:19:05.551Z,96.70
2019-05-10T12:21:21.699Z,96.50
2019-05-10T12:23:55.965Z,96.60
2019-05-10T12:28:52.372Z,97.60
2019-05-10T12:31:23.208Z,97.90
2019-05-10T12:33:51.543Z,97.60
2019-05-10T12:36:25.591Z,97.70
2019-05-10T12:38:50.700Z,96.90
2019-05-10T12:41:23.195Z,96.30
2019-05-10T12:43:51.744Z,98.00
2019-05-10T12:46:20.758Z,98.00
2019-05-10T12:48:51.608Z,95.40
2019-05-10T12:51:21.119Z,96.80
2019-05-10T12:53:52.091Z,96.40
2019-05-10T12:56:20.603Z,95.30
2019-05-10T12:58:56.767Z,95.40
2019-05-10T13:01:25.596Z,95.30
2019-05-10T13:03:50.518Z,95.30
2019-05-10T13:06:19.892Z,95.40
2019-05-10T13:08:48.803Z,97.10
2019-05-10T13:11:18.832Z,97.00
2019-05-10T13:13:48.118Z,96.40
2019-05-10T13:16:16.863Z,97.70
2019-05-10T13:18:52.001Z,98.00
2019-05-10T13:21:20.666Z,99.50
2019-05-10T13:23:46.535Z,99.90
2019-05-10T13:26:15.284Z,99.90
2019-05-10T13:28:44.008Z,99.90
2019-05-10T13:31:15.012Z,99.90
2019-05-10T13:33:44.431Z,99.90
2019-05-10T13:36:13.228Z,99.90
2019-05-10T13:38:44.036Z,99.90
2019-05-10T13:41:12.431Z,99.90
2019-05-10T13:43:41.156Z,99.90
2019-05-10T13:46:09.903Z,99.90
2019-05-10T13:48:38.879Z,99.90
2019-05-10T13:51:07.609Z,99.90
2019-05-10T13:53:36.330Z,99.90
2019-05-10T13:56:05.119Z,99.90
2019-05-10T13:58:33.889Z,99.90
2019-05-10T14:01:06.748Z,99.90
2019-05-10T14:03:44.128Z,99.90
2019-05-10T14:06:03.812Z,99.90
2019-05-10T14:08:32.556Z,99.90
2019-05-10T14:11:01.884Z,99.90
2019-05-10T14:13:35.696Z,99.90
2019-05-10T14:16:02.483Z,99.90
2019-05-10T14:18:31.231Z,99.90
2019-05-10T14:21:00.003Z,99.90
2019-05-10T14:23:34.425Z,99.90
2019-05-10T14:25:59.167Z,99.90
2019-05-10T14:28:27.907Z,99.90
2019-05-10T14:30:58.549Z,99.90
2019-05-10T14:33:27.177Z,99.90
2019-05-10T14:36:00.819Z,99.90
2019-05-10T14:38:26.357Z,99.90
2019-05-10T14:40:55.126Z,99.90
2019-05-10T14:43:23.962Z,99.90
2019-05-10T14:45:52.672Z,99.90
2019-05-10T14:48:27.776Z,99.90
2019-05-10T14:50:51.887Z,99.90
2019-05-10T14:53:25.718Z,99.90
2019-05-10T14:55:51.316Z,99.90
2019-05-10T14:58:20.236Z,99.90
2019-05-10T15:00:49.171Z,99.90
2019-05-10T15:06:50.132Z,99.90
2019-05-10T15:09:22.001Z,99.90
2019-05-10T15:11:49.294Z,99.90
2019-05-10T15:14:18.059Z,99.90
2019-05-10T15:16:46.787Z,99.90
2019-05-10T15:19:15.518Z,99.90
2019-05-10T15:21:44.349Z,99.90
2019-05-10T15:24:13.085Z,99.90
2019-05-10T15:26:43.862Z,99.90
2019-05-10T15:29:15.069Z,99.90
2019-05-10T15:31:42.782Z,99.90
2019-05-10T15:34:11.506Z,99.90
2019-05-10T15:36:40.386Z,99.90
2019-05-10T15:39:09.111Z,99.90
2019-05-10T15:41:37.850Z,99.90
2019-05-10T15:44:06.581Z,99.90
2019-05-10T15:46:41.761Z,99.90
2019-05-10T15:49:05.819Z,99.90
2019-05-10T15:54:07.450Z,99.90
2019-05-10T15:56:40.747Z,99.90
2019-05-10T15:59:06.225Z,99.90
2019-05-10T15:59:23.706Z,99.90
2019-05-10T16:01:35.424Z,99.90
2019-05-10T16:04:04.150Z,99.90
2019-05-10T16:06:37.760Z,99.90
2019-05-10T16:09:16.974Z,99.90
2019-05-10T16:11:35.503Z,99.90
2019-05-10T16:14:04.428Z,99.90
2019-05-10T16:37:46.680Z,99.90
2019-05-10T16:40:15.491Z,99.90
2019-05-10T16:42:44.229Z,99.90
2019-05-10T16:45:12.983Z,99.90
2019-05-10T16:47:41.720Z,99.90
2019-05-10T16:50:11.164Z,99.90
2019-05-10T16:52:39.915Z,99.90
2019-05-10T16:55:09.710Z,99.90
2019-05-10T16:57:39.405Z,99.90
2019-05-10T17:00:10.333Z,99.90
2019-05-10T17:02:42.264Z,99.90
2019-05-10T17:05:14.473Z,99.90
2019-05-10T17:07:39.987Z,99.90
2019-05-10T17:10:08.748Z,99.90
2019-05-10T17:12:37.470Z,99.90
2019-05-10T17:15:06.251Z,99.90
2019-05-10T17:17:37.036Z,99.90
2019-05-10T17:20:07.566Z,99.90
2019-05-10T17:22:36.439Z,99.90
2019-05-10T17:25:05.577Z,99.90
2019-05-10T17:27:34.321Z,99.90
2019-05-10T17:30:03.138Z,99.90
2019-05-10T17:32:34.160Z,99.90
2019-05-10T17:35:04.549Z,99.90
2019-05-10T17:37:35.927Z,99.90
2019-05-10T17:40:10.170Z,99.90
2019-05-10T17:42:40.741Z,99.90
2019-05-10T17:45:06.351Z,99.90
2019-05-10T17:47:35.080Z,99.90
2019-05-10T17:50:03.970Z,99.90
2019-05-10T17:52:32.856Z,99.90
2019-05-10T17:55:16.862Z,99.90
2019-05-10T17:57:56.591Z,99.90
2019-05-10T18:00:25.635Z,99.90
2019-05-10T18:02:54.362Z,99.90
2019-05-10T18:05:23.408Z,99.90
2019-05-10T18:07:52.228Z,99.90
2019-05-10T18:10:20.956Z,99.90
2019-05-10T18:12:49.752Z,99.90
2019-05-10T18:15:18.519Z,99.90
2019-05-10T18:17:47.222Z,99.90
2019-05-10T18:20:15.955Z,99.90
2019-05-10T18:22:45.370Z,99.90
2019-05-10T18:25:20.636Z,99.90
2019-05-10T18:27:45.180Z,99.90
2019-05-10T18:30:13.931Z,99.90
2019-05-10T18:32:43.111Z,99.90
2019-05-10T18:35:14.758Z,99.90
2019-05-10T18:37:42.346Z,99.90
2019-05-10T18:40:11.100Z,99.90
2019-05-10T18:42:39.908Z,99.90
2019-05-10T18:45:08.859Z,99.90
2019-05-10T18:47:37.628Z,99.90
2019-05-10T18:50:09.231Z,99.90
2019-05-10T18:52:38.002Z,99.90
2019-05-10T18:55:06.812Z,99.90
2019-05-10T18:57:35.575Z,99.90
2019-05-10T19:00:04.986Z,99.90
2019-05-10T19:02:33.734Z,99.90
2019-05-10T19:05:02.463Z,99.90
2019-05-10T19:07:31.226Z,99.90
2019-05-10T19:10:00.260Z,99.90
2019-05-10T19:12:29.391Z,99.90
2019-05-10T19:15:02.386Z,99.90
2019-05-10T19:17:28.843Z,99.90
2019-05-10T19:19:57.563Z,99.90
2019-05-10T19:22:26.287Z,99.90
2019-05-10T19:24:57.076Z,99.90
2019-05-10T19:27:26.839Z,99.90
2019-05-10T19:29:55.559Z,99.90
2019-05-10T19:32:24.396Z,99.90
2019-05-10T19:34:57.072Z,99.90
2019-05-10T19:37:30.051Z,99.90
2019-05-10T19:39:55.719Z,99.90
2019-05-10T19:42:24.527Z,99.90
2019-05-10T19:44:54.964Z,99.90
2019-05-10T19:47:23.778Z,99.90
2019-05-10T19:49:53.522Z,99.90
2019-05-10T19:52:26.219Z,99.90
2019-05-10T19:54:53.082Z,99.90
2019-05-10T19:57:22.939Z,99.90
2019-05-10T19:59:51.683Z,99.90
2019-05-10T20:02:20.851Z,99.90
2019-05-10T20:04:49.608Z,99.90
2019-05-10T20:07:18.335Z,99.90
2019-05-10T20:09:47.041Z,99.90
2019-05-10T20:12:15.872Z,99.90
2019-05-10T20:14:44.661Z,99.90
2019-05-10T20:17:13.470Z,99.90
2019-05-10T20:19:42.315Z,99.90
2019-05-10T20:22:11.041Z,99.90
2019-05-10T20:24:40.058Z,99.90
2019-05-10T20:27:08.832Z,99.90
2019-05-10T20:29:37.579Z,99.90
2019-05-10T20:32:06.339Z,99.90
2019-05-10T20:34:35.118Z,99.90
2019-05-10T20:37:03.855Z,99.90
2019-05-10T20:39:32.623Z,99.90
2019-05-10T20:42:01.345Z,99.90
2019-05-10T20:44:30.083Z,99.90
2019-05-10T20:46:58.828Z,99.90
2019-05-10T20:49:27.595Z,99.90
2019-05-10T20:51:56.402Z,99.90
2019-05-10T20:54:25.415Z,99.90
2019-05-10T20:56:54.351Z,99.90
2019-05-10T20:59:23.099Z,99.90
2019-05-10T21:01:51.859Z,99.90
2019-05-10T21:04:20.595Z,99.90
2019-05-10T21:06:49.344Z,99.90
2019-05-10T21:09:18.080Z,99.90
2019-05-10T21:11:46.798Z,99.90
2019-05-10T21:14:15.586Z,99.90
2019-05-10T21:16:44.323Z,99.90
2019-05-10T21:19:13.056Z,99.90
2019-05-10T21:21:41.884Z,99.90
2019-05-10T21:24:10.610Z,99.90
2019-05-10T21:26:39.339Z,99.90
2019-05-10T21:29:08.056Z,99.90
2019-05-10T21:31:36.857Z,99.90
2019-05-10T21:34:09.678Z,99.90
2019-05-10T21:36:36.107Z,99.90
2019-05-10T21:39:07.152Z,99.90
2019-05-10T21:41:35.907Z,99.90
2019-05-10T21:44:04.671Z,99.90
2019-05-10T21:46:34.722Z,99.90
2019-05-10T21:49:03.576Z,99.90
2019-05-10T21:51:32.344Z,99.90
2019-05-10T21:54:01.091Z,99.90
2019-05-10T21:56:29.901Z,99.90
2019-05-10T21:58:58.727Z,99.90
2019-05-10T22:01:27.606Z,99.90
2019-05-10T22:03:56.424Z,99.90
2019-05-10T22:06:25.149Z,99.90
2019-05-10T22:08:53.924Z,99.90
2019-05-10T22:11:22.796Z,99.90
2019-05-10T22:13:51.555Z,99.90
2019-05-10T22:16:20.274Z,99.90
2019-05-10T22:18:57.078Z,99.90
2019-05-10T22:21:25.936Z,99.90
2019-05-10T22:23:54.702Z,99.90
2019-05-10T22:26:23.495Z,99.90
2019-05-10T22:28:52.246Z,99.90
2019-05-10T22:31:20.968Z,99.90
2019-05-10T22:33:51.461Z,99.90
2019-05-10T22:36:20.223Z,99.90
2019-05-10T22:39:04.543Z,99.90
2019-05-10T22:41:19.535Z,99.90
2019-05-10T22:43:48.280Z,99.90
2019-05-10T22:46:17.043Z,99.90
2019-05-10T22:48:46.035Z,99.90
2019-05-10T22:51:14.834Z,99.90
2019-05-10T22:53:43.647Z,99.90
2019-05-10T22:56:12.404Z,99.90
2019-05-10T22:58:41.158Z,99.90
2019-05-10T23:01:09.998Z,99.90
2019-05-10T23:03:38.719Z,99.90
2019-05-10T23:06:07.437Z,99.90
2019-05-10T23:08:36.291Z,99.90
2019-05-10T23:11:05.118Z,99.90
2019-05-10T23:13:33.902Z,99.90
2019-05-10T23:16:02.646Z,99.90
2019-05-10T23:18:31.522Z,99.90
2019-05-10T23:21:01.613Z,99.90
2019-05-10T23:23:30.414Z,99.90
2019-05-10T23:25:59.164Z,99.90
2019-05-10T23:28:27.899Z,99.90
2019-05-10T23:30:56.654Z,99.90
2019-05-10T23:33:25.383Z,99.90
2019-05-10T23:35:54.112Z,99.90
2019-05-10T23:38:22.866Z,99.90
2019-05-10T23:40:51.575Z,99.90
2019-05-10T23:43:20.306Z,99.90
2019-05-10T23:45:49.139Z,99.90
2019-05-10T23:48:17.859Z,99.90
2019-05-10T23:50:46.571Z,99.90
2019-05-10T23:53:15.327Z,99.90
2019-05-10T23:55:44.062Z,99.90
2019-05-10T23:58:12.776Z,99.90
